Time;durP1;ratioP1;P1;durP2;ratioP2;P2;SDS_P1;SDS_P2;PMS_P1;PMS_P2;Temp;Humidity;BMP_temperature;BMP_pressure;BME280_temperature;BME280_humidity;BME280_pressure;Samples;Min_cycle;Max_cycle;Signal;HPM_P1;HPM_P2
2022/02/01 00:00:56;;;;;;;27.45;14.70;;;;;;;1.90;100.00;100833.69;4944667;28;20047;-85
2022/02/01 00:03:28;;;;;;;32.60;15.95;;;;;;;1.90;100.00;100825.97;4988396;28;20449;-84
2022/02/01 00:06:04;;;;;;;37.55;16.15;;;;;;;1.88;100.00;100830.22;4979945;28;20137;-84
2022/02/01 00:08:38;;;;;;;32.10;16.58;;;;;;;1.86;100.00;100825.84;5004224;28;20054;-84
2022/02/01 00:11:16;;;;;;;27.60;14.13;;;;;;;1.85;100.00;100817.19;4980104;28;20143;-84
2022/02/01 00:13:51;;;;;;;28.67;14.40;;;;;;;1.87;100.00;100818.13;4975689;28;20069;-84
2022/02/01 00:35:38;;;;;;;;;;;;;;;1.84;100.00;100850.72;5017548;28;20033;-84
2022/02/01 00:38:15;;;;;;;24.67;13.38;;;;;;;1.83;100.00;100836.09;5003370;28;20000;-84
2022/02/01 00:40:43;;;;;;;22.17;12.55;;;;;;;1.80;100.00;100832.56;5008310;28;20129;-84
2022/02/01 00:43:10;;;;;;;22.52;13.20;;;;;;;1.80;100.00;100818.81;5006624;28;20053;-82
2022/02/01 00:45:37;;;;;;;25.70;12.00;;;;;;;1.79;100.00;100822.22;5007436;28;20075;-84
2022/02/01 00:48:08;;;;;;;24.75;12.68;;;;;;;1.77;100.00;100821.28;5012781;28;20042;-83
2022/02/01 00:50:35;;;;;;;22.30;11.85;;;;;;;1.76;100.00;100822.09;5002875;28;20519;-84
2022/02/01 00:53:01;;;;;;;21.90;11.82;;;;;;;1.77;100.00;100826.44;5008674;28;20054;-83
2022/02/01 00:55:28;;;;;;;25.65;11.90;;;;;;;1.75;100.00;100816.06;5002591;28;20357;-85
2022/02/01 00:57:55;;;;;;;21.75;11.73;;;;;;;1.75;100.00;100818.66;5007165;28;20064;-84
2022/02/01 01:00:22;;;;;;;23.15;11.88;;;;;;;1.76;100.00;100820.41;4996588;28;20520;-83
2022/02/01 01:02:48;;;;;;;21.05;12.93;;;;;;;1.76;100.00;100823.00;5000693;28;20042;-84
2022/02/01 01:05:15;;;;;;;25.08;12.55;;;;;;;1.79;100.00;100824.78;5005089;28;20061;-83
2022/02/01 01:07:41;;;;;;;22.30;12.10;;;;;;;1.77;100.00;100821.28;5004288;28;20046;-83
2022/02/01 01:10:10;;;;;;;20.52;12.38;;;;;;;1.68;100.00;100831.31;5006681;28;20052;-86
2022/02/01 01:12:46;;;;;;;21.85;12.40;;;;;;;1.64;100.00;100823.50;4994313;28;20052;-83
2022/02/01 01:15:27;;;;;;;20.17;11.15;;;;;;;1.63;100.00;100826.00;4998551;28;20045;-84
2022/02/01 01:18:23;;;;;;;26.00;13.15;;;;;;;1.64;100.00;100831.25;4999868;28;20048;-83
2022/02/01 01:54:12;;;;;;;15.73;8.43;;;;;;;1.85;100.00;100843.00;4979541;28;20042;-83
2022/02/01 01:56:39;;;;;;;15.75;8.35;;;;;;;1.85;100.00;100849.91;4996439;28;20038;-83
2022/02/01 01:59:09;;;;;;;17.77;7.43;;;;;;;1.89;100.00;100860.38;4995317;28;20030;-83
2022/02/01 02:01:36;;;;;;;15.85;7.00;;;;;;;1.93;100.00;100875.13;4987982;28;20103;-85
2022/02/01 02:04:04;;;;;;;15.00;6.63;;;;;;;1.96;100.00;100862.28;4992187;28;20555;-84
2022/02/01 02:06:31;;;;;;;10.13;6.13;;;;;;;2.00;100.00;100862.41;4976269;28;20049;-84
2022/02/01 02:09:01;;;;;;;7.78;4.68;;;;;;;2.00;100.00;100863.25;4993159;28;20103;-84
2022/02/01 02:11:35;;;;;;;13.98;5.65;;;;;;;2.01;100.00;100865.03;4992773;28;20382;-84
2022/02/01 02:14:20;;;;;;;10.35;5.35;;;;;;;1.98;100.00;100854.59;4974948;28;20045;-84
2022/02/01 02:16:51;;;;;;;;;;;;;;;1.95;100.00;100845.03;4994883;28;20513;-84
2022/02/01 02:19:19;;;;;;;11.52;4.75;;;;;;;1.91;100.00;100829.44;4992547;28;20722;-84
2022/02/01 02:21:59;;;;;;;7.50;3.80;;;;;;;1.86;100.00;100839.63;4993046;28;20058;-83
2022/02/01 02:24:29;;;;;;;12.70;4.72;;;;;;;1.80;100.00;100839.44;4987854;28;20050;-85
2022/02/01 02:26:56;;;;;;;12.02;4.60;;;;;;;1.76;100.00;100838.47;4994468;28;20068;-84
2022/02/01 02:29:24;;;;;;;13.25;4.40;;;;;;;1.72;100.00;100831.47;4995362;28;20062;-84
2022/02/01 02:31:50;;;;;;;8.93;3.45;;;;;;;1.67;100.00;100827.00;5005472;28;20568;-83
2022/02/01 02:34:18;;;;;;;13.98;3.83;;;;;;;1.61;100.00;100817.38;4992776;28;20061;-83
2022/02/01 02:36:54;;;;;;;14.27;3.20;;;;;;;1.56;100.00;100817.22;4987309;28;20054;-84
2022/02/01 02:39:28;;;;;;;15.05;5.82;;;;;;;1.49;100.00;100815.28;4991239;28;20441;-85
2022/02/01 02:42:08;;;;;;;7.85;2.63;;;;;;;1.44;100.00;100828.03;4992285;28;20815;-84
2022/02/01 02:47:21;;;;;;;15.38;2.90;;;;;;;1.32;100.00;100815.63;4995642;28;20049;-83
2022/02/01 02:49:48;;;;;;;10.23;2.40;;;;;;;1.29;100.00;100822.41;4987780;28;20042;-83
2022/02/01 02:52:16;;;;;;;8.65;2.17;;;;;;;1.25;100.00;100836.03;4991738;28;20065;-83
2022/02/01 02:54:44;;;;;;;7.63;2.03;;;;;;;1.21;100.00;100829.88;5010569;28;20041;-84
2022/02/01 02:57:12;;;;;;;18.67;4.15;;;;;;;1.20;100.00;100827.25;4976516;28;20034;-84
2022/02/01 02:59:39;;;;;;;12.90;2.55;;;;;;;1.18;100.00;100834.09;4996344;28;20070;-83
2022/02/01 03:02:07;;;;;;;9.73;2.70;;;;;;;1.18;100.00;100829.81;4976235;28;20050;-83
2022/02/01 03:04:36;;;;;;;5.35;2.20;;;;;;;1.22;100.00;100825.63;4995335;28;20053;-85
2022/02/01 03:07:08;;;;;;;10.57;2.65;;;;;;;1.23;100.00;100833.41;4981577;28;20057;-84
2022/02/01 03:09:40;;;;;;;17.15;3.20;;;;;;;1.25;100.00;100834.34;5004725;28;20046;-84
2022/02/01 03:12:07;;;;;;;9.75;2.15;;;;;;;1.24;100.00;100840.31;4995640;28;20471;-84
2022/02/01 03:14:47;;;;;;;10.93;2.72;;;;;;;1.25;100.00;100847.22;4972116;28;20144;-84
2022/02/01 03:17:21;;;;;;;14.70;3.08;;;;;;;1.27;100.00;100858.47;4976688;28;20069;-85
2022/02/01 03:19:49;;;;;;;12.50;2.75;;;;;;;1.28;100.00;100843.88;4986022;28;20056;-85
2022/02/01 03:25:11;;;;;;;7.85;2.00;;;;;;;1.28;100.00;100851.63;4998074;28;20080;-85
2022/02/01 03:27:41;;;;;;;23.00;3.55;;;;;;;1.29;100.00;100845.59;4982262;28;20046;-83
2022/02/01 03:30:08;;;;;;;15.80;2.58;;;;;;;1.26;100.00;100835.22;5053983;22;20060;-82
2022/02/01 03:35:20;;;;;;;15.35;4.28;;;;;;;1.25;100.00;100843.75;5007962;28;20072;-88
2022/02/01 03:40:35;;;;;;;8.32;3.25;;;;;;;1.25;100.00;100825.72;5002262;28;20079;-84
2022/02/01 03:43:10;;;;;;;8.82;2.95;;;;;;;1.26;100.00;100830.91;5006287;28;20138;-83
2022/02/01 03:45:37;;;;;;;15.90;3.08;;;;;;;1.27;100.00;100834.38;5001232;28;20053;-82
2022/02/01 03:48:04;;;;;;;15.18;3.90;;;;;;;1.28;100.00;100837.00;5006800;28;20051;-84
2022/02/01 03:50:30;;;;;;;15.40;3.70;;;;;;;1.30;100.00;100837.94;5014872;28;20068;-83
2022/02/01 03:52:57;;;;;;;13.50;3.10;;;;;;;1.32;100.00;100843.16;4998616;28;20051;-83
2022/02/01 03:55:23;;;;;;;13.32;4.07;;;;;;;1.36;100.00;100851.88;5010340;28;20056;-87
2022/02/01 03:57:51;;;;;;;19.70;3.45;;;;;;;1.38;100.00;100857.94;5012158;28;20051;-83
2022/02/01 04:00:17;;;;;;;11.00;3.38;;;;;;;1.43;100.00;100867.56;4999614;28;20049;-82
2022/02/01 04:02:44;;;;;;;14.70;2.47;;;;;;;1.48;100.00;100868.56;5016693;28;20049;-84
2022/02/01 04:05:10;;;;;;;24.80;6.80;;;;;;;1.52;100.00;100871.28;5016237;28;20051;-83
2022/02/01 04:07:42;;;;;;;16.17;4.93;;;;;;;1.54;100.00;100872.19;5007519;28;20048;-83
2022/02/01 04:10:11;;;;;;;13.70;5.25;;;;;;;1.56;100.00;100873.13;5014252;28;20124;-82
2022/02/01 04:12:38;;;;;;;16.23;5.97;;;;;;;1.56;100.00;100871.41;5024091;28;20041;-83
2022/02/01 04:15:07;;;;;;;17.10;4.63;;;;;;;1.54;100.00;100865.34;5017484;28;20048;-83
2022/02/01 04:17:35;;;;;;;17.10;4.80;;;;;;;1.51;100.00;100856.63;5015873;28;20045;-83
2022/02/01 04:20:02;;;;;;;13.10;2.15;;;;;;;1.52;100.00;100845.47;4997016;28;20048;-83
2022/02/01 04:22:29;;;;;;;10.07;2.90;;;;;;;1.49;100.00;100828.19;4997080;28;20507;-83
2022/02/01 04:24:58;;;;;;;13.90;2.65;;;;;;;1.46;100.00;100822.91;5010174;28;20048;-83
2022/02/01 04:27:30;;;;;;;12.70;3.40;;;;;;;1.44;100.00;100817.72;5013327;28;20049;-82
2022/02/01 04:30:17;;;;;;;16.42;2.85;;;;;;;1.41;100.00;100801.25;5005172;28;20061;-84
2022/02/01 04:32:51;;;;;;;15.35;2.92;;;;;;;1.36;100.00;100793.41;5020046;28;20136;-83
2022/02/01 04:35:29;;;;;;;16.50;3.38;;;;;;;1.31;100.00;100795.81;4999090;28;20053;-81
2022/02/01 04:37:57;;;;;;;21.42;4.22;;;;;;;1.27;100.00;100796.56;4993719;28;20064;-83
2022/02/01 04:40:27;;;;;;;16.38;3.03;;;;;;;1.23;100.00;100805.03;5000015;28;20052;-83
2022/02/01 04:42:58;;;;;;;11.10;2.78;;;;;;;1.26;100.00;100806.84;4988401;28;20559;-83
2022/02/01 04:45:25;;;;;;;15.40;3.10;;;;;;;1.27;100.00;100808.59;5027767;28;20147;-82
2022/02/01 04:47:53;;;;;;;13.50;3.58;;;;;;;1.25;100.00;100813.72;5028976;28;20046;-83
2022/02/01 04:50:27;;;;;;;13.85;3.70;;;;;;;1.21;100.00;100824.72;4991627;28;20054;-84
2022/02/01 04:52:55;;;;;;;16.42;4.03;;;;;;;1.16;100.00;100831.44;5024902;28;20052;-83
2022/02/01 04:55:43;;;;;;;13.50;2.60;;;;;;;1.06;100.00;100830.28;5008427;28;20132;-82
2022/02/01 04:58:10;;;;;;;16.33;3.03;;;;;;;0.97;100.00;100824.81;5023874;28;20046;-82
2022/02/01 05:00:36;;;;;;;28.73;4.78;;;;;;;0.91;100.00;100822.03;5011143;28;20048;-84
2022/02/01 05:03:05;;;;;;;11.63;2.85;;;;;;;0.86;100.00;100823.59;4986816;28;20202;-83
2022/02/01 05:05:32;;;;;;;12.60;2.67;;;;;;;0.81;100.00;100814.00;4998679;28;20048;-83
2022/02/01 05:08:14;;;;;;;10.48;3.20;;;;;;;0.75;100.00;100816.38;4974533;28;20053;-85
2022/02/01 05:10:42;;;;;;;12.98;2.35;;;;;;;0.76;100.00;100825.00;5026031;28;20050;-85
2022/02/01 05:16:03;;;;;;;11.30;2.90;;;;;;;0.71;100.00;100845.44;4983430;28;20047;-83
2022/02/01 05:18:44;;;;;;;15.80;2.97;;;;;;;0.70;100.00;100833.38;4997184;28;20050;-84
2022/02/01 05:21:19;;;;;;;7.72;2.20;;;;;;;0.68;100.00;100836.72;4978490;28;20026;-83
2022/02/01 05:23:47;;;;;;;16.95;2.35;;;;;;;0.67;100.00;100847.88;4997631;28;20703;-83
2022/02/01 05:26:19;;;;;;;10.50;3.70;;;;;;;0.69;100.00;100851.38;5013537;28;20840;-84
2022/02/01 05:28:48;;;;;;;18.00;3.28;;;;;;;0.63;100.00;100844.31;4984655;28;20452;-85
2022/02/01 05:31:18;;;;;;;17.38;3.28;;;;;;;0.65;100.00;100845.22;5026949;28;20830;-85
2022/02/01 05:33:46;;;;;;;18.55;3.40;;;;;;;0.68;100.00;100845.34;4981853;28;20033;-85
2022/02/01 05:36:16;;;;;;;16.17;2.85;;;;;;;0.70;100.00;100841.09;4997844;28;20872;-85
2022/02/01 05:38:43;;;;;;;15.25;3.35;;;;;;;0.75;100.00;100847.28;4996539;28;20168;-85
2022/02/01 05:41:15;;;;;;;12.65;2.17;;;;;;;0.78;100.00;100850.00;4982056;28;20056;-85
2022/02/01 05:43:58;;;;;;;12.30;2.33;;;;;;;0.84;100.00;100849.31;4984927;28;20049;-84
2022/02/01 05:46:28;;;;;;;12.57;2.45;;;;;;;0.90;100.00;100852.09;4987233;28;20059;-84
2022/02/01 05:48:55;;;;;;;8.25;1.77;;;;;;;0.94;100.00;100860.78;4986735;28;20054;-85
2022/02/01 05:51:25;;;;;;;27.40;4.10;;;;;;;1.01;100.00;100861.91;4991938;28;20092;-86
2022/02/01 05:53:51;;;;;;;21.70;3.85;;;;;;;1.02;100.00;100850.75;5013404;28;20145;-84
2022/02/01 05:56:20;;;;;;;19.75;4.97;;;;;;;1.04;100.00;100846.53;5026413;28;20045;-84
2022/02/01 05:58:48;;;;;;;6.95;2.78;;;;;;;1.07;100.00;100844.03;4983358;28;20167;-83
2022/02/01 06:01:15;;;;;;;20.33;3.45;;;;;;;1.08;100.00;100838.94;4981425;28;20049;-83
2022/02/01 06:03:43;;;;;;;11.07;2.78;;;;;;;1.08;100.00;100818.31;5025424;28;20033;-83
2022/02/01 06:06:10;;;;;;;14.10;2.30;;;;;;;1.09;100.00;100827.78;5013998;28;20099;-82
2022/02/01 06:08:44;;;;;;;8.68;2.95;;;;;;;1.13;100.00;100826.19;4996221;28;20475;-85
2022/02/01 06:11:10;;;;;;;9.25;1.63;;;;;;;1.17;100.00;100819.44;4999730;28;20935;-83
2022/02/01 06:13:38;;;;;;;13.20;2.92;;;;;;;1.21;100.00;100804.09;5014015;28;20045;-83
2022/02/01 06:16:08;;;;;;;15.57;2.15;;;;;;;1.22;100.00;100810.16;4993125;28;20113;-84
2022/02/01 06:18:35;;;;;;;15.82;2.13;;;;;;;1.19;100.00;100805.78;5000284;28;20049;-86
2022/02/01 06:21:02;;;;;;;7.55;2.35;;;;;;;1.21;100.00;100810.97;5012739;28;20050;-85
2022/02/01 06:23:36;;;;;;;8.02;2.28;;;;;;;1.24;100.00;100809.38;5000738;28;20196;-82
2022/02/01 06:26:08;;;;;;;9.63;2.03;;;;;;;1.28;100.00;100795.75;5004114;28;20055;-83
2022/02/01 06:28:35;;;;;;;14.55;2.03;;;;;;;1.29;100.00;100787.19;4982149;28;20049;-83
2022/02/01 06:31:07;;;;;;;12.40;1.95;;;;;;;1.31;100.00;100785.50;4998234;28;20525;-84
2022/02/01 06:33:37;;;;;;;14.00;1.85;;;;;;;1.37;100.00;100784.84;5025980;28;20056;-85
2022/02/01 06:36:04;;;;;;;9.98;3.17;;;;;;;1.44;100.00;100780.75;4991901;28;20081;-85
2022/02/01 06:38:34;;;;;;;9.55;2.42;;;;;;;1.44;100.00;100789.34;4983685;28;20046;-84
2022/02/01 06:41:07;;;;;;;16.27;2.55;;;;;;;1.51;100.00;100803.28;5007951;28;20049;-85
2022/02/01 06:43:46;;;;;;;12.18;2.38;;;;;;;1.58;100.00;100822.44;4982556;28;20437;-84
2022/02/01 06:46:14;;;;;;;10.23;2.25;;;;;;;1.57;100.00;100813.81;5011942;28;20046;-82
2022/02/01 06:49:18;;;;;;;16.85;2.08;;;;;;;1.58;100.00;100831.06;4995746;28;20089;-85
2022/02/01 06:51:48;;;;;;;8.85;2.13;;;;;;;1.62;100.00;100825.16;4997442;28;20045;-85
2022/02/01 06:54:24;;;;;;;9.38;2.63;;;;;;;1.68;100.00;100810.69;5000802;28;20495;-85
2022/02/01 06:59:49;;;;;;;6.35;2.22;;;;;;;1.75;100.00;100810.03;5027539;28;20050;-85
2022/02/01 07:02:16;;;;;;;6.07;1.98;;;;;;;1.78;100.00;100812.72;5008213;28;20050;-82
2022/02/01 07:04:43;;;;;;;11.30;2.72;;;;;;;1.78;100.00;100813.56;5005377;28;20049;-83
2022/02/01 07:07:13;;;;;;;12.02;3.00;;;;;;;1.79;100.00;100815.31;5027729;28;20069;-83
2022/02/01 07:09:45;;;;;;;15.23;2.33;;;;;;;1.82;100.00;100814.53;5021602;28;20049;-85
2022/02/01 07:12:15;;;;;;;16.67;2.13;;;;;;;1.83;100.00;100807.69;5009930;28;20147;-85
2022/02/01 07:14:52;;;;;;;6.15;2.88;;;;;;;1.88;100.00;100804.41;5014634;28;20052;-82
2022/02/01 07:17:24;;;;;;;9.25;2.40;;;;;;;1.88;100.00;100799.25;5027203;28;20072;-83
2022/02/01 07:19:50;;;;;;;11.40;2.58;;;;;;;1.91;100.00;100790.72;5012650;28;20068;-82
2022/02/01 07:22:22;;;;;;;9.25;2.88;;;;;;;1.92;100.00;100790.75;5017999;28;20107;-81
2022/02/01 07:25:13;;;;;;;7.68;2.00;;;;;;;1.93;100.00;100781.28;4973718;28;20440;-82
2022/02/01 07:27:47;;;;;;;8.90;1.95;;;;;;;2.01;99.70;100789.25;5006760;28;20411;-82
2022/02/01 07:30:24;;;;;;;6.15;1.92;;;;;;;2.06;99.59;100778.22;5134498;23;20150;-87
2022/02/01 07:32:58;;;;;;;15.18;1.70;;;;;;;2.12;99.35;100780.09;5048798;28;20575;-87
2022/02/01 07:35:26;;;;;;;6.20;2.03;;;;;;;2.14;98.51;100787.06;4998322;28;20148;-87
2022/02/01 07:37:54;;;;;;;9.43;1.60;;;;;;;2.14;99.00;100796.53;5027264;28;20045;-87
2022/02/01 07:40:21;;;;;;;10.45;2.22;;;;;;;2.18;98.41;100784.56;4998223;28;20165;-88
2022/02/01 07:42:49;;;;;;;5.07;1.38;;;;;;;2.23;97.38;100780.38;5019104;28;20140;-87
2022/02/01 07:45:20;;;;;;;10.75;1.85;;;;;;;2.28;97.03;100761.63;5016904;28;20142;-87
2022/02/01 07:47:49;;;;;;;8.88;1.17;;;;;;;2.28;96.92;100761.63;5013563;28;20481;-87
2022/02/01 07:50:15;;;;;;;13.27;1.92;;;;;;;2.31;96.71;100747.91;5014807;28;20586;-86
2022/02/01 07:52:44;;;;;;;5.05;1.70;;;;;;;2.33;97.21;100756.56;5015615;28;20520;-87
2022/02/01 07:55:10;;;;;;;14.10;2.22;;;;;;;2.36;96.76;100753.19;5002025;28;20049;-87
2022/02/01 07:57:39;;;;;;;6.88;1.63;;;;;;;2.41;96.11;100744.72;5007295;28;20041;-87
2022/02/01 08:00:08;;;;;;;8.00;2.35;;;;;;;2.43;96.13;100745.63;5014298;28;20069;-87
2022/02/01 08:02:36;;;;;;;11.07;1.95;;;;;;;2.48;96.14;100745.75;5015667;28;21350;-88
2022/02/01 08:05:06;;;;;;;8.70;2.40;;;;;;;2.51;96.33;100726.88;5011118;28;20048;-86
2022/02/01 08:07:33;;;;;;;3.50;1.08;;;;;;;2.58;95.72;100708.09;5013602;28;20672;-86
2022/02/01 08:10:02;;;;;;;15.30;3.75;;;;;;;2.60;95.05;100691.78;5000399;28;20447;-87
2022/02/01 08:18:06;;;;;;;9.32;1.63;;;;;;;2.76;93.59;100684.41;5012969;28;20037;-86
2022/02/01 08:20:37;;;;;;;7.38;1.48;;;;;;;2.78;93.04;100698.25;4997980;28;20139;-87
2022/02/01 08:23:07;;;;;;;6.28;1.35;;;;;;;2.80;92.91;100694.84;5013098;28;20159;-86
2022/02/01 08:25:36;;;;;;;6.35;1.60;;;;;;;2.85;92.45;100681.16;4995627;28;20396;-87
2022/02/01 08:28:04;;;;;;;9.70;2.15;;;;;;;2.90;91.72;100666.63;5000450;28;20053;-86
2022/02/01 08:30:32;;;;;;;6.43;1.38;;;;;;;2.93;91.07;100662.41;5032649;28;20052;-86
2022/02/01 08:32:59;;;;;;;7.72;1.77;;;;;;;2.96;90.15;100646.09;5037468;28;20045;-87
2022/02/01 08:35:26;;;;;;;5.82;1.13;;;;;;;2.99;90.17;100643.56;5051957;28;20048;-87
2022/02/01 08:37:53;;;;;;;4.78;0.90;;;;;;;3.06;89.13;100641.97;5035822;28;20041;-86
2022/02/01 08:40:20;;;;;;;11.13;1.45;;;;;;;3.06;89.48;100642.81;5054693;28;20135;-86
2022/02/01 08:42:48;;;;;;;3.75;1.35;;;;;;;3.09;88.28;100635.16;5052492;28;20048;-87
2022/02/01 08:45:21;;;;;;;5.75;1.90;;;;;;;3.13;88.32;100612.81;5055669;28;20052;-85
2022/02/01 08:47:50;;;;;;;12.30;3.03;;;;;;;3.15;87.48;100603.34;5037555;28;20048;-86
2022/02/01 08:50:21;;;;;;;8.60;2.38;;;;;;;3.17;86.55;100596.50;5054220;28;20483;-86
2022/02/01 08:52:49;;;;;;;9.88;1.60;;;;;;;3.21;85.67;100605.22;5055166;28;20471;-88
2022/02/01 08:55:32;;;;;;;5.00;1.45;;;;;;;3.28;85.63;100601.91;5035567;28;20052;-88
2022/02/01 08:58:00;;;;;;;8.55;1.98;;;;;;;3.34;85.61;100589.09;5058442;28;20056;-87
2022/02/01 09:00:28;;;;;;;6.53;1.17;;;;;;;3.35;84.43;100585.66;5037481;28;20101;-87
2022/02/01 09:02:58;;;;;;;9.23;1.45;;;;;;;3.33;84.81;100581.31;5040311;28;20136;-87
2022/02/01 09:05:26;;;;;;;16.50;3.05;;;;;;;3.30;85.41;100584.69;5059742;28;20045;-87
2022/02/01 09:07:53;;;;;;;12.82;1.42;;;;;;;3.36;85.68;100573.59;5077844;28;20528;-89
2022/02/01 09:10:20;;;;;;;9.65;1.92;;;;;;;3.45;85.20;100548.75;5059766;28;20139;-87
2022/02/01 09:12:47;;;;;;;9.15;3.15;;;;;;;3.52;84.78;100552.34;5034009;28;20076;-88
2022/02/01 09:15:14;;;;;;;5.95;1.70;;;;;;;3.55;85.21;100538.59;5055725;28;20052;-87
2022/02/01 09:17:40;;;;;;;6.90;2.05;;;;;;;3.58;84.38;100523.94;5052787;28;20040;-87
2022/02/01 09:20:09;;;;;;;3.10;1.55;;;;;;;3.64;83.25;100518.03;5056001;28;20048;-87
2022/02/01 09:22:36;;;;;;;5.07;1.40;;;;;;;3.64;83.01;100523.22;5036963;28;20052;-87
2022/02/01 09:25:05;;;;;;;7.70;1.55;;;;;;;3.67;82.57;100505.13;5037924;28;20045;-89
2022/02/01 09:27:32;;;;;;;9.43;1.20;;;;;;;3.68;83.44;100501.69;5029655;28;20041;-88
2022/02/01 09:29:59;;;;;;;1.77;0.98;;;;;;;3.69;82.76;100494.78;5067984;28;20057;-87
2022/02/01 09:32:27;;;;;;;6.15;2.67;;;;;;;3.71;82.87;100506.06;5047365;28;20112;-88
2022/02/01 09:34:54;;;;;;;4.53;1.65;;;;;;;3.67;83.14;100505.13;5056001;28;20495;-88
2022/02/01 09:37:21;;;;;;;3.53;1.23;;;;;;;3.69;83.30;100490.50;5050922;28;20463;-87
2022/02/01 09:39:48;;;;;;;4.85;2.13;;;;;;;3.75;83.05;100482.81;5043890;28;20480;-89
2022/02/01 09:42:17;;;;;;;4.13;1.55;;;;;;;3.80;82.96;100477.72;5037954;28;20561;-87
2022/02/01 09:44:44;;;;;;;5.82;2.30;;;;;;;3.79;83.39;100466.50;5038806;28;20049;-88
2022/02/01 09:47:11;;;;;;;8.18;1.75;;;;;;;3.78;83.04;100456.09;5044842;28;20054;-87
2022/02/01 09:49:38;;;;;;;8.65;2.25;;;;;;;3.77;83.02;100463.00;5031943;28;20041;-87
2022/02/01 09:52:08;;;;;;;5.28;1.95;;;;;;;3.73;83.19;100447.38;5037032;28;21289;-85
2022/02/01 09:54:35;;;;;;;7.75;3.58;;;;;;;3.75;83.60;100437.94;5045592;28;20072;-85
2022/02/01 09:57:07;;;;;;;5.18;2.50;;;;;;;3.77;83.14;100436.25;5056959;28;20056;-85
2022/02/01 09:59:35;;;;;;;15.13;3.90;;;;;;;3.77;83.70;100431.09;5055438;28;20689;-89
2022/02/01 10:02:12;;;;;;;10.18;3.00;;;;;;;3.84;83.23;100417.38;5037301;28;20527;-88
2022/02/01 10:04:39;;;;;;;12.88;2.70;;;;;;;3.83;83.92;100425.13;5052983;28;20060;-87
2022/02/01 10:07:12;;;;;;;12.75;2.88;;;;;;;3.85;84.46;100413.94;5049961;28;20070;-87
2022/02/01 10:09:51;;;;;;;12.45;3.72;;;;;;;3.76;85.50;100399.13;5069598;28;20043;-86
2022/02/01 10:12:19;;;;;;;7.50;3.80;;;;;;;3.77;86.91;100406.06;5045999;28;20051;-87
2022/02/01 10:14:54;;;;;;;5.65;3.33;;;;;;;3.67;87.53;100393.81;5037606;28;20055;-85
2022/02/01 10:17:38;;;;;;;8.20;3.65;;;;;;;3.65;87.98;100387.75;5055836;28;20049;-87
2022/02/01 10:20:05;;;;;;;9.75;4.63;;;;;;;3.65;88.37;100377.41;5034012;28;20224;-86
2022/02/01 10:22:36;;;;;;;4.70;3.50;;;;;;;3.62;88.52;100360.13;5047996;28;20052;-85
2022/02/01 10:25:07;;;;;;;4.85;4.32;;;;;;;3.58;89.21;100366.06;5052644;28;20059;-87
2022/02/01 10:27:38;;;;;;;12.23;5.50;;;;;;;3.61;89.49;100349.72;5037121;28;20457;-86
2022/02/01 10:30:09;;;;;;;4.97;4.18;;;;;;;3.55;89.63;100327.22;5022737;28;20048;-86
2022/02/01 10:33:12;;;;;;;13.00;4.90;;;;;;;3.47;90.65;100321.91;5016852;28;22909;-86
2022/02/01 10:35:55;;;;;;;12.90;4.47;;;;;;;3.46;91.22;100327.94;5015512;28;20491;-87
2022/02/01 10:38:24;;;;;;;9.23;4.75;;;;;;;3.46;91.79;100316.72;5013844;28;20156;-87
2022/02/01 10:40:52;;;;;;;7.95;5.03;;;;;;;3.46;92.34;100306.38;5013224;28;20052;-86
2022/02/01 10:43:34;;;;;;;7.88;4.63;;;;;;;3.46;92.64;100281.34;5034380;28;20732;-86
2022/02/01 10:46:16;;;;;;;11.20;4.88;;;;;;;3.44;92.62;100287.34;5017870;28;20526;-85
2022/02/01 10:48:52;;;;;;;7.22;5.03;;;;;;;3.45;93.66;100291.69;5033559;28;20132;-86
2022/02/01 10:51:23;;;;;;;16.40;5.70;;;;;;;3.45;94.40;100294.28;5006106;28;20053;-85
2022/02/01 10:53:54;;;;;;;10.30;5.32;;;;;;;3.45;95.17;100287.38;5014613;28;20102;-86
2022/02/01 10:56:28;;;;;;;6.65;5.22;;;;;;;3.43;96.24;100273.56;5012286;28;20131;-86
2022/02/01 10:58:54;;;;;;;10.48;5.40;;;;;;;3.37;96.92;100270.88;5018490;28;20470;-86
2022/02/01 11:01:21;;;;;;;9.60;4.97;;;;;;;3.36;98.02;100263.09;5021318;28;20067;-86
2022/02/01 11:03:51;;;;;;;7.30;5.55;;;;;;;3.35;98.79;100276.88;5017204;28;20072;-86
2022/02/01 11:06:18;;;;;;;5.07;4.47;;;;;;;3.31;99.55;100252.66;5039640;28;20045;-85
2022/02/01 11:08:46;;;;;;;8.32;4.45;;;;;;;3.32;100.00;100238.91;5013961;28;20049;-89
2022/02/01 11:11:19;;;;;;;9.77;4.90;;;;;;;3.29;100.00;100231.97;5020692;28;20041;-86
2022/02/01 11:13:49;;;;;;;7.95;4.60;;;;;;;3.30;100.00;100225.94;5039680;28;20138;-85
2022/02/01 11:16:26;;;;;;;5.22;4.05;;;;;;;3.31;100.00;100200.94;5008344;28;20056;-85
2022/02/01 11:19:05;;;;;;;8.00;5.43;;;;;;;3.33;100.00;100207.00;5049302;28;20044;-84
2022/02/01 11:21:52;;;;;;;6.18;5.05;;;;;;;3.30;100.00;100187.13;5046039;28;20064;-84
2022/02/01 11:24:35;;;;;;;10.15;4.68;;;;;;;3.30;100.00;100181.09;5029790;28;20055;-88
2022/02/01 11:27:17;;;;;;;5.93;4.53;;;;;;;3.23;100.00;100168.94;5030448;28;20064;-89
2022/02/01 11:30:02;;;;;;;5.30;4.80;;;;;;;3.23;100.00;100168.94;5044753;28;20049;-84
2022/02/01 11:32:50;;;;;;;3.50;3.15;;;;;;;3.22;100.00;100144.78;5056385;28;20045;-87
2022/02/01 11:35:27;;;;;;;5.07;4.05;;;;;;;3.25;100.00;100133.63;5049493;28;20052;-87
2022/02/01 11:38:17;;;;;;;4.68;3.65;;;;;;;3.27;100.00;100135.38;5050934;28;20046;-90
2022/02/01 11:41:08;;;;;;;4.10;3.10;;;;;;;3.28;100.00;100118.13;5048431;28;20067;-85
2022/02/01 11:43:36;;;;;;;4.40;3.83;;;;;;;3.31;100.00;100097.44;5053379;28;20060;-89
2022/02/01 11:46:07;;;;;;;4.35;3.10;;;;;;;3.34;100.00;100105.25;5063734;28;20094;-88
2022/02/01 11:48:41;;;;;;;5.50;3.10;;;;;;;3.38;100.00;100088.06;5049030;28;20048;-87
2022/02/01 11:51:16;;;;;;;3.33;2.47;;;;;;;3.42;100.00;100076.91;5058581;28;20786;-84
2022/02/01 11:53:48;;;;;;;2.60;2.40;;;;;;;3.46;100.00;100083.84;5069504;28;20092;-87
2022/02/01 11:56:22;;;;;;;2.55;2.30;;;;;;;3.52;100.00;100063.22;5068592;28;20079;-89
2022/02/01 11:59:00;;;;;;;;;;;;;;;3.59;100.00;100066.72;5065806;28;20068;-89
2022/02/01 12:01:31;;;;;;;3.28;2.45;;;;;;;3.65;100.00;100053.84;5036533;28;20241;-84
2022/02/01 12:04:18;;;;;;;2.13;2.03;;;;;;;3.68;100.00;100038.34;5043622;28;20071;-85
2022/02/01 12:06:55;;;;;;;2.35;1.98;;;;;;;3.72;100.00;100028.88;5066048;28;20067;-87
2022/02/01 12:09:23;;;;;;;1.85;1.63;;;;;;;3.77;100.00;100004.75;5057814;28;21009;-90
2022/02/01 12:12:01;;;;;;;3.55;1.60;;;;;;;3.87;100.00;100010.00;5081667;28;20052;-87
2022/02/01 12:14:28;;;;;;;3.20;2.05;;;;;;;3.96;100.00;100004.91;5052155;28;20059;-84
2022/02/01 12:17:00;;;;;;;3.85;2.63;;;;;;;4.02;100.00;100001.50;5048008;28;20049;-85
2022/02/01 12:19:38;;;;;;;1.98;1.65;;;;;;;4.11;100.00;99986.88;5045350;28;20044;-88
2022/02/01 12:22:30;;;;;;;2.22;2.03;;;;;;;4.21;100.00;99977.47;5046914;28;20511;-88
2022/02/01 12:25:07;;;;;;;2.28;1.77;;;;;;;4.27;100.00;99976.63;5044428;28;20169;-84
2022/02/01 12:27:47;;;;;;;1.63;1.50;;;;;;;4.32;100.00;99977.50;5046826;28;20052;-85
2022/02/01 12:30:15;;;;;;;1.90;1.58;;;;;;;4.40;100.00;99949.06;5054349;28;20183;-88
2022/02/01 12:33:02;;;;;;;1.27;1.13;;;;;;;4.40;100.00;99941.28;5053360;28;20118;-84
2022/02/01 12:35:40;;;;;;;2.30;1.70;;;;;;;4.39;100.00;99918.81;5066822;28;20040;-88
2022/02/01 12:38:18;;;;;;;2.25;2.05;;;;;;;4.34;100.00;99918.81;5072428;28;20066;-84
2022/02/01 12:40:58;;;;;;;0.98;0.98;;;;;;;4.28;100.00;99885.09;5056225;28;20040;-85
2022/02/01 12:43:29;;;;;;;2.83;0.93;;;;;;;4.29;100.00;99887.69;5056576;28;20091;-89
2022/02/01 12:46:29;;;;;;;2.72;1.88;;;;;;;4.32;100.00;99886.81;5036935;28;20071;-85
2022/02/01 12:48:58;;;;;;;1.77;1.58;;;;;;;4.31;100.00;99900.63;5059355;28;20047;-87
2022/02/01 12:51:48;;;;;;;1.42;1.33;;;;;;;4.32;100.00;99881.63;5052763;28;20112;-85
2022/02/01 12:54:37;;;;;;;1.50;1.40;;;;;;;4.28;100.00;99869.53;5068418;28;20044;-86
2022/02/01 12:57:11;;;;;;;2.28;1.70;;;;;;;4.28;100.00;99857.44;5079686;28;20032;-85
2022/02/01 12:59:58;;;;;;;1.83;1.73;;;;;;;4.31;100.00;99854.00;5043472;28;20045;-88